Time;durP1;ratioP1;P1;durP2;ratioP2;P2;SDS_P1;SDS_P2;PMS_P1;PMS_P2;Temp;Humidity;BMP_temperature;BMP_pressure;BME280_temperature;BME280_humidity;BME280_pressure;Samples;Min_cycle;Max_cycle;Signal;HPM_P1;HPM_P2
2022/10/19 00:02:14;;;;;;;27.67;11.20;;;;;;;;;;5072810;28;20064;-82
2022/10/19 00:04:40;;;;;;;23.83;10.07;;;;;;;;;;5054752;28;20106;-81
2022/10/19 00:07:06;;;;;;;24.35;9.90;;;;;;;;;;5072178;28;20067;-82
2022/10/19 00:09:33;;;;;;;24.90;8.00;;;;;;;;;;5073458;28;20493;-81
2022/10/19 00:11:59;;;;;;;18.75;7.38;;;;;;;;;;5074609;28;20262;-81
2022/10/19 00:14:26;;;;;;;23.38;7.88;;;;;;;;;;5071790;28;20048;-83
2022/10/19 00:16:53;;;;;;;22.55;7.57;;;;;;;;;;5054762;28;20124;-83
2022/10/19 00:19:24;;;;;;;27.58;7.70;;;;;;;;;;5071550;28;20045;-80
2022/10/19 00:21:53;;;;;;;19.75;7.50;;;;;;;;;;5054512;28;20053;-82
2022/10/19 00:24:20;;;;;;;19.08;7.50;;;;;;;;;;5073393;28;20055;-83
2022/10/19 00:26:46;;;;;;;21.27;8.02;;;;;;;;;;5054478;28;20045;-81
2022/10/19 00:29:13;;;;;;;22.65;7.78;;;;;;;;;;5071971;28;20689;-82
2022/10/19 00:31:41;;;;;;;24.50;8.63;;;;;;;;;;5072380;28;20064;-82
2022/10/19 00:34:08;;;;;;;21.23;8.57;;;;;;;;;;5071216;28;20049;-81
2022/10/19 00:36:36;;;;;;;23.92;8.30;;;;;;;;;;5070313;28;20044;-81
2022/10/19 00:39:03;;;;;;;25.27;8.20;;;;;;;;;;5072185;28;20192;-80
2022/10/19 00:41:31;;;;;;;22.17;8.10;;;;;;;;;;5071937;28;20051;-81
2022/10/19 00:44:00;;;;;;;24.42;8.88;;;;;;;;;;5053607;28;20075;-82
2022/10/19 00:46:28;;;;;;;25.77;9.48;;;;;;;;;;5054185;28;20401;-79
2022/10/19 00:48:58;;;;;;;23.90;8.98;;;;;;;;;;5052477;28;20496;-81
2022/10/19 00:51:27;;;;;;;19.75;9.55;;;;;;;;;;5053591;28;20114;-81
2022/10/19 00:53:55;;;;;;;21.65;10.00;;;;;;;;;;5072027;28;20130;-82
2022/10/19 00:56:21;;;;;;;21.55;10.10;;;;;;;;;;5071724;28;20063;-82
2022/10/19 00:58:48;;;;;;;25.98;10.82;;;;;;;;;;5070698;28;20048;-82
2022/10/19 01:01:16;;;;;;;25.40;10.45;;;;;;;;;;5062217;28;20055;-82
2022/10/19 01:03:43;;;;;;;24.33;10.35;;;;;;;;;;5069643;28;20131;-82
2022/10/19 01:06:10;;;;;;;27.95;10.82;;;;;;;;;;5071278;28;20048;-83
2022/10/19 01:08:37;;;;;;;25.58;11.57;;;;;;;;;;5071013;28;20052;-80
2022/10/19 01:11:06;;;;;;;30.58;11.60;;;;;;;;;;5070805;28;20056;-82
2022/10/19 01:13:47;;;;;;;34.95;11.73;;;;;;;;;;5071219;28;20100;-80
2022/10/19 01:16:20;;;;;;;30.48;12.63;;;;;;;;;;5071434;28;20049;-81
2022/10/19 01:18:47;;;;;;;28.10;12.38;;;;;;;;;;5071409;28;20048;-81
2022/10/19 01:21:19;;;;;;;30.30;12.50;;;;;;;;;;5073299;28;20104;-80
2022/10/19 01:23:54;;;;;;;30.80;12.57;;;;;;;;;;5075515;28;20052;-81
2022/10/19 01:26:39;;;;;;;27.88;12.07;;;;;;;;;;5073771;28;20528;-81
2022/10/19 01:29:18;;;;;;;24.13;11.65;;;;;;;;;;5074406;28;20049;-80
2022/10/19 01:31:49;;;;;;;26.85;11.57;;;;;;;;;;5073958;28;20051;-80
2022/10/19 01:34:32;;;;;;;36.22;12.68;;;;;;;;;;5074117;28;20051;-81
2022/10/19 01:37:05;;;;;;;31.88;12.70;;;;;;;;;;5069977;28;20075;-83
2022/10/19 01:39:40;;;;;;;30.45;11.43;;;;;;;;;;5096666;28;20092;-83
2022/10/19 01:42:16;;;;;;;30.55;9.98;;;;;;;;;;5089808;28;20112;-81
2022/10/19 01:45:14;;;;;;;34.03;10.25;;;;;;;;;;5071991;28;20068;-81
2022/10/19 01:47:45;;;;;;;22.35;9.90;;;;;;;;;;5015035;28;20040;-80
2022/10/19 01:50:15;;;;;;;23.70;9.85;;;;;;;;;;5053364;28;20124;-80
2022/10/19 01:52:41;;;;;;;24.33;9.10;;;;;;;;;;5069913;28;20493;-80
2022/10/19 01:55:09;;;;;;;31.05;9.57;;;;;;;;;;5070801;28;20563;-81
2022/10/19 01:57:39;;;;;;;22.58;9.48;;;;;;;;;;5069777;28;20404;-79
2022/10/19 02:00:07;;;;;;;27.45;9.65;;;;;;;;;;5069887;28;20051;-79
2022/10/19 02:02:35;;;;;;;29.30;9.55;;;;;;;;;;5070530;28;20061;-80
2022/10/19 02:05:05;;;;;;;24.35;10.25;;;;;;;;;;5070839;28;20056;-81
2022/10/19 02:07:32;;;;;;;26.42;10.57;;;;;;;;;;5068001;28;20539;-82
2022/10/19 02:09:58;;;;;;;28.98;9.85;;;;;;;;;;5070102;28;20123;-81
2022/10/19 02:12:27;;;;;;;29.92;11.93;;;;;;;;;;5070630;28;20135;-81
2022/10/19 02:14:56;;;;;;;26.23;10.90;;;;;;;;;;5069712;28;20079;-80
2022/10/19 02:17:27;;;;;;;31.05;10.73;;;;;;;;;;5070134;28;20049;-79
2022/10/19 02:19:53;;;;;;;28.77;10.73;;;;;;;;;;5068683;28;20048;-82
2022/10/19 02:22:20;;;;;;;27.85;10.68;;;;;;;;;;5069974;28;20464;-79
2022/10/19 02:24:46;;;;;;;30.42;11.50;;;;;;;;;;5070899;28;20048;-80
2022/10/19 02:27:15;;;;;;;34.45;12.85;;;;;;;;;;5070492;28;20484;-82
2022/10/19 02:29:42;;;;;;;31.65;12.18;;;;;;;;;;5070386;28;20072;-82
2022/10/19 02:32:09;;;;;;;32.85;11.77;;;;;;;;;;5070719;28;20454;-80
2022/10/19 02:34:36;;;;;;;28.85;12.75;;;;;;;;;;5069572;28;20393;-81
2022/10/19 02:37:02;;;;;;;32.50;11.77;;;;;;;;;;5078202;28;20054;-80
2022/10/19 02:39:29;;;;;;;25.65;12.55;;;;;;;;;;5052201;28;20072;-83
2022/10/19 02:41:59;;;;;;;31.02;11.50;;;;;;;;;;5072879;28;20070;-80
2022/10/19 02:44:28;;;;;;;30.75;12.20;;;;;;;;;;5075664;28;20044;-82
2022/10/19 02:47:07;;;;;;;33.38;13.25;;;;;;;;;;5076341;28;20063;-81
2022/10/19 02:49:35;;;;;;;29.85;13.10;;;;;;;;;;5077275;28;20053;-81
2022/10/19 02:52:03;;;;;;;37.20;14.18;;;;;;;;;;5080118;28;20192;-82
2022/10/19 02:54:30;;;;;;;33.10;13.40;;;;;;;;;;5081241;28;20087;-82
2022/10/19 02:56:56;;;;;;;30.88;13.35;;;;;;;;;;5085666;28;20136;-82
2022/10/19 02:59:23;;;;;;;37.85;13.35;;;;;;;;;;5095852;28;20036;-80
2022/10/19 03:01:49;;;;;;;33.55;13.57;;;;;;;;;;5083260;28;20044;-81
2022/10/19 03:04:16;;;;;;;45.28;13.93;;;;;;;;;;5084794;28;20112;-80
2022/10/19 03:06:43;;;;;;;33.92;14.63;;;;;;;;;;5063445;28;20110;-80
2022/10/19 03:09:09;;;;;;;43.47;13.77;;;;;;;;;;5083830;28;20052;-82
2022/10/19 03:11:35;;;;;;;34.65;14.82;;;;;;;;;;5085941;28;20049;-82
2022/10/19 03:14:02;;;;;;;35.47;14.07;;;;;;;;;;5086162;28;20055;-81
2022/10/19 03:16:28;;;;;;;38.33;14.77;;;;;;;;;;5085210;28;20055;-81
2022/10/19 03:18:55;;;;;;;37.65;14.07;;;;;;;;;;5084319;28;20447;-82
2022/10/19 03:21:22;;;;;;;39.08;13.88;;;;;;;;;;5085200;28;20079;-81
2022/10/19 03:23:48;;;;;;;37.50;13.90;;;;;;;;;;5086337;28;20059;-81
2022/10/19 03:26:15;;;;;;;38.50;14.02;;;;;;;;;;5088101;28;20075;-82
2022/10/19 03:28:42;;;;;;;37.72;13.45;;;;;;;;;;5064487;28;20515;-80
2022/10/19 03:31:08;;;;;;;31.30;13.70;;;;;;;;;;5057761;28;20102;-80
2022/10/19 03:33:34;;;;;;;42.30;13.20;;;;;;;;;;5056693;28;20048;-81
2022/10/19 03:36:16;;;;;;;39.22;13.43;;;;;;;;;;5075615;28;20044;-81
2022/10/19 03:38:43;;;;;;;29.63;12.52;;;;;;;;;;5096490;28;20047;-80
2022/10/19 03:41:10;;;;;;;32.22;13.18;;;;;;;;;;5078670;28;20040;-83
2022/10/19 03:43:36;;;;;;;34.22;12.80;;;;;;;;;;5079434;28;20059;-83
2022/10/19 03:46:03;;;;;;;38.33;14.05;;;;;;;;;;5097762;28;20051;-80
2022/10/19 03:48:29;;;;;;;23.77;12.18;;;;;;;;;;5097108;28;20051;-77
2022/10/19 03:51:15;;;;;;;28.67;13.02;;;;;;;;;;5090377;28;20147;-80
2022/10/19 03:53:42;;;;;;;30.77;12.60;;;;;;;;;;5055022;28;20385;-80
2022/10/19 03:56:13;;;;;;;29.60;12.13;;;;;;;;;;5058916;28;20415;-80
2022/10/19 03:58:40;;;;;;;34.08;12.45;;;;;;;;;;5073628;28;20492;-78
2022/10/19 04:01:08;;;;;;;29.30;11.23;;;;;;;;;;5073338;28;20667;-79
2022/10/19 04:03:34;;;;;;;27.80;11.45;;;;;;;;;;5072290;28;20078;-79
2022/10/19 04:06:07;;;;;;;32.25;11.75;;;;;;;;;;5074156;28;20053;-81
2022/10/19 04:08:34;;;;;;;31.67;11.20;;;;;;;;;;5074112;28;20087;-82
2022/10/19 04:11:01;;;;;;;33.80;10.50;;;;;;;;;;5075803;28;20058;-80
2022/10/19 04:13:28;;;;;;;31.33;11.13;;;;;;;;;;5075385;28;20166;-82
2022/10/19 04:15:54;;;;;;;27.30;10.02;;;;;;;;;;5073300;28;20619;-81
2022/10/19 04:18:21;;;;;;;25.58;9.82;;;;;;;;;;5073338;28;20048;-81
2022/10/19 04:20:47;;;;;;;33.55;9.70;;;;;;;;;;5054879;28;20063;-82
2022/10/19 04:23:14;;;;;;;36.00;10.73;;;;;;;;;;5074764;28;20056;-83
2022/10/19 04:25:40;;;;;;;24.30;10.50;;;;;;;;;;5073929;28;20048;-79
2022/10/19 04:28:06;;;;;;;30.45;10.43;;;;;;;;;;5073897;28;20053;-81
2022/10/19 04:30:33;;;;;;;27.05;10.13;;;;;;;;;;5073839;28;20475;-82
2022/10/19 04:32:59;;;;;;;26.55;9.85;;;;;;;;;;5074664;28;20285;-81
2022/10/19 04:35:25;;;;;;;26.08;9.32;;;;;;;;;;5055023;28;20048;-81
2022/10/19 04:37:52;;;;;;;34.42;10.65;;;;;;;;;;5074717;28;20045;-80
2022/10/19 04:40:18;;;;;;;33.17;10.68;;;;;;;;;;5056179;28;20051;-79
2022/10/19 04:42:45;;;;;;;27.77;11.05;;;;;;;;;;5074304;28;20055;-79
2022/10/19 04:45:11;;;;;;;32.47;10.60;;;;;;;;;;5055571;28;20048;-78
2022/10/19 04:47:37;;;;;;;29.08;9.88;;;;;;;;;;5056150;28;20048;-80
2022/10/19 04:50:04;;;;;;;34.35;11.25;;;;;;;;;;5073691;28;20048;-80
2022/10/19 04:52:30;;;;;;;26.30;9.68;;;;;;;;;;5073283;28;20143;-79
2022/10/19 04:54:58;;;;;;;25.83;9.48;;;;;;;;;;5074604;28;20076;-80
2022/10/19 04:57:28;;;;;;;31.30;10.00;;;;;;;;;;5073960;28;20049;-81
2022/10/19 04:59:54;;;;;;;29.92;10.82;;;;;;;;;;5086072;28;20104;-81
2022/10/19 05:02:20;;;;;;;29.10;9.35;;;;;;;;;;5095092;28;20043;-81
2022/10/19 05:04:47;;;;;;;25.48;9.85;;;;;;;;;;5089481;28;20098;-80
2022/10/19 05:07:14;;;;;;;30.30;10.15;;;;;;;;;;5074637;28;20048;-80
2022/10/19 05:09:40;;;;;;;31.38;10.18;;;;;;;;;;5073215;28;20295;-80
2022/10/19 05:12:07;;;;;;;27.88;10.60;;;;;;;;;;5072620;28;20044;-80
2022/10/19 05:14:33;;;;;;;32.58;10.30;;;;;;;;;;5071322;28;20053;-79
2022/10/19 05:17:04;;;;;;;31.92;10.00;;;;;;;;;;5070990;28;20045;-78
2022/10/19 05:19:30;;;;;;;32.63;10.68;;;;;;;;;;5071740;28;20049;-80
2022/10/19 05:21:57;;;;;;;33.58;10.73;;;;;;;;;;5071313;28;20473;-81
2022/10/19 05:24:23;;;;;;;33.10;10.88;;;;;;;;;;5071750;28;20063;-80
2022/10/19 05:26:49;;;;;;;25.33;10.35;;;;;;;;;;5070424;28;20055;-80
2022/10/19 05:29:16;;;;;;;25.83;9.85;;;;;;;;;;5071709;28;20044;-81
2022/10/19 05:31:42;;;;;;;30.17;10.40;;;;;;;;;;5054811;28;20053;-80
2022/10/19 05:34:09;;;;;;;23.85;9.95;;;;;;;;;;5073561;28;20049;-80
2022/10/19 05:36:36;;;;;;;30.10;11.07;;;;;;;;;;5070977;28;20041;-79
2022/10/19 05:39:04;;;;;;;27.60;9.65;;;;;;;;;;5071562;28;20052;-80
2022/10/19 05:41:31;;;;;;;28.45;10.30;;;;;;;;;;5052919;28;20049;-80
2022/10/19 05:44:00;;;;;;;34.05;9.55;;;;;;;;;;5071266;28;20052;-82
2022/10/19 05:46:27;;;;;;;30.73;10.35;;;;;;;;;;5071464;28;20048;-82
2022/10/19 05:48:55;;;;;;;32.40;9.73;;;;;;;;;;5070672;28;20127;-79
2022/10/19 05:51:22;;;;;;;26.98;10.25;;;;;;;;;;5071201;28;20049;-80
2022/10/19 05:53:49;;;;;;;21.52;10.05;;;;;;;;;;5053475;28;20059;-81
2022/10/19 05:56:20;;;;;;;33.53;10.10;;;;;;;;;;5070850;28;20241;-78
2022/10/19 05:58:47;;;;;;;36.10;10.60;;;;;;;;;;5070502;28;20090;-81
2022/10/19 06:01:13;;;;;;;20.08;9.43;;;;;;;;;;5070855;28;20054;-81
2022/10/19 06:03:40;;;;;;;30.30;10.88;;;;;;;;;;5070585;28;20412;-80
2022/10/19 06:06:07;;;;;;;37.45;10.55;;;;;;;;;;5070360;28;20044;-82
2022/10/19 06:08:33;;;;;;;25.80;9.75;;;;;;;;;;5070568;28;20060;-82
2022/10/19 06:11:10;;;;;;;25.08;8.63;;;;;;;;;;5070041;28;20054;-82
2022/10/19 06:13:37;;;;;;;26.67;8.63;;;;;;;;;;5072913;28;20055;-81
2022/10/19 06:16:05;;;;;;;25.70;8.90;;;;;;;;;;5070233;28;20050;-82
2022/10/19 06:18:31;;;;;;;23.15;8.50;;;;;;;;;;5069824;28;20048;-80
2022/10/19 06:21:02;;;;;;;20.75;8.48;;;;;;;;;;5070057;28;20056;-82
2022/10/19 06:23:29;;;;;;;20.65;8.98;;;;;;;;;;5070827;28;20040;-81
2022/10/19 06:25:56;;;;;;;25.20;8.88;;;;;;;;;;5070991;28;20045;-79
2022/10/19 06:28:22;;;;;;;20.98;8.10;;;;;;;;;;5070776;28;20041;-79
2022/10/19 06:30:48;;;;;;;30.42;8.02;;;;;;;;;;5052148;28;20369;-81
2022/10/19 06:33:15;;;;;;;31.55;8.93;;;;;;;;;;5070355;28;20427;-80
2022/10/19 06:35:41;;;;;;;24.63;7.45;;;;;;;;;;5069877;28;20052;-82
2022/10/19 06:38:08;;;;;;;27.25;8.18;;;;;;;;;;5070175;28;20045;-81
2022/10/19 06:40:35;;;;;;;23.35;8.23;;;;;;;;;;5051974;28;20048;-80
2022/10/19 06:43:01;;;;;;;21.40;7.80;;;;;;;;;;5071146;28;20040;-82
2022/10/19 06:45:27;;;;;;;20.13;7.45;;;;;;;;;;5052258;28;20048;-82
2022/10/19 06:48:00;;;;;;;20.90;7.53;;;;;;;;;;5069961;28;20140;-82
2022/10/19 06:50:33;;;;;;;22.27;7.90;;;;;;;;;;5069531;28;20110;-82
2022/10/19 06:52:59;;;;;;;19.60;7.68;;;;;;;;;;5071064;28;20048;-79
2022/10/19 06:55:26;;;;;;;21.08;7.60;;;;;;;;;;5070332;28;20044;-81
2022/10/19 06:57:53;;;;;;;36.72;12.80;;;;;;;;;;5069787;28;20071;-81
2022/10/19 07:00:19;;;;;;;44.03;13.70;;;;;;;;;;5069644;28;20045;-80
2022/10/19 07:02:46;;;;;;;32.35;9.93;;;;;;;;;;5070385;28;20239;-80
2022/10/19 07:05:13;;;;;;;23.45;7.57;;;;;;;;;;5072035;28;20048;-78
2022/10/19 07:07:39;;;;;;;27.70;7.47;;;;;;;;;;5069408;28;20044;-78
2022/10/19 07:10:06;;;;;;;16.23;6.35;;;;;;;;;;5068555;28;20087;-78
2022/10/19 07:12:32;;;;;;;24.15;6.10;;;;;;;;;;5069231;28;20048;-79
2022/10/19 07:14:59;;;;;;;19.00;5.28;;;;;;;;;;5067981;28;20083;-81
2022/10/19 07:17:25;;;;;;;22.02;5.45;;;;;;;;;;5069288;28;20057;-79
2022/10/19 07:19:51;;;;;;;15.70;4.60;;;;;;;;;;5069293;28;20041;-78
2022/10/19 07:22:18;;;;;;;11.82;4.70;;;;;;;;;;5072195;28;20045;-78
2022/10/19 07:24:53;;;;;;;17.45;4.32;;;;;;;;;;5072910;28;20149;-81
2022/10/19 07:27:19;;;;;;;16.30;4.45;;;;;;;;;;5069680;28;20444;-81
2022/10/19 07:29:46;;;;;;;14.05;4.07;;;;;;;;;;5058336;28;20055;-81
2022/10/19 07:32:12;;;;;;;13.48;3.85;;;;;;;;;;5074157;28;20049;-83
2022/10/19 07:34:38;;;;;;;10.38;3.25;;;;;;;;;;5073990;28;20045;-80
2022/10/19 07:37:05;;;;;;;16.45;2.92;;;;;;;;;;5072466;28;20112;-81
2022/10/19 07:39:31;;;;;;;17.48;3.13;;;;;;;;;;5073909;28;20055;-81
2022/10/19 07:41:58;;;;;;;10.30;3.50;;;;;;;;;;5072951;28;20053;-80
2022/10/19 07:44:26;;;;;;;8.82;2.83;;;;;;;;;;5072437;28;20052;-81
2022/10/19 07:46:53;;;;;;;9.90;3.25;;;;;;;;;;5073317;28;20059;-82
2022/10/19 07:49:20;;;;;;;13.25;3.20;;;;;;;;;;5073640;28;20495;-81
2022/10/19 07:51:47;;;;;;;10.82;3.10;;;;;;;;;;5073234;28;20052;-80
2022/10/19 07:54:13;;;;;;;14.23;3.05;;;;;;;;;;5073670;28;20079;-83
2022/10/19 07:56:39;;;;;;;12.25;3.47;;;;;;;;;;5072700;28;20508;-81
2022/10/19 07:59:06;;;;;;;11.38;2.90;;;;;;;;;;5055033;28;20049;-82
2022/10/19 08:01:34;;;;;;;19.67;4.55;;;;;;;;;;5073691;28;20140;-82
2022/10/19 08:04:00;;;;;;;16.48;3.78;;;;;;;;;;5073270;28;20179;-79
2022/10/19 08:06:47;;;;;;;17.77;3.13;;;;;;;;;;5073350;28;20056;-82
2022/10/19 08:09:13;;;;;;;12.57;3.50;;;;;;;;;;5074023;28;20124;-80
2022/10/19 08:12:00;;;;;;;9.88;3.22;;;;;;;;;;5073220;28;20049;-82
2022/10/19 08:14:26;;;;;;;11.52;3.72;;;;;;;;;;5073643;28;20047;-81
2022/10/19 08:16:53;;;;;;;10.88;3.28;;;;;;;;;;5075472;28;20044;-81
2022/10/19 08:19:21;;;;;;;12.43;3.47;;;;;;;;;;5074036;28;20132;-80
2022/10/19 08:21:47;;;;;;;19.02;3.70;;;;;;;;;;5074218;28;20056;-81
2022/10/19 08:24:15;;;;;;;16.17;3.70;;;;;;;;;;5082084;28;20049;-82
2022/10/19 08:26:41;;;;;;;12.10;2.70;;;;;;;;;;5094586;28;20075;-83
2022/10/19 08:29:07;;;;;;;15.60;2.70;;;;;;;;;;5095450;28;20075;-83
2022/10/19 08:31:34;;;;;;;9.70;2.40;;;;;;;;;;5069536;28;20100;-83
2022/10/19 08:34:01;;;;;;;9.75;2.88;;;;;;;;;;5086119;28;20045;-82
2022/10/19 08:36:30;;;;;;;9.90;2.28;;;;;;;;;;5080696;28;20286;-80
2022/10/19 08:38:56;;;;;;;12.02;2.65;;;;;;;;;;5078037;28;20358;-82
2022/10/19 08:41:23;;;;;;;14.10;2.80;;;;;;;;;;5074107;28;20045;-82
2022/10/19 08:44:02;;;;;;;18.65;3.40;;;;;;;;;;5074326;28;20054;-82
2022/10/19 08:46:40;;;;;;;13.30;3.28;;;;;;;;;;5061327;28;20068;-79
2022/10/19 08:49:08;;;;;;;13.25;3.63;;;;;;;;;;5081615;28;20063;-81
2022/10/19 08:51:36;;;;;;;10.57;3.20;;;;;;;;;;5084031;28;20263;-83
2022/10/19 08:54:10;;;;;;;13.63;2.95;;;;;;;;;;5085534;28;20055;-82
2022/10/19 08:56:46;;;;;;;11.55;2.75;;;;;;;;;;5064248;28;20079;-81
2022/10/19 08:59:24;;;;;;;9.80;2.15;;;;;;;;;;5064359;28;20090;-81
2022/10/19 09:01:53;;;;;;;8.20;2.40;;;;;;;;;;5080964;28;20036;-82
2022/10/19 09:04:24;;;;;;;14.05;2.80;;;;;;;;;;5083140;28;20128;-82
2022/10/19 09:06:51;;;;;;;14.35;2.63;;;;;;;;;;5075703;28;20053;-83
2022/10/19 09:09:18;;;;;;;9.88;2.65;;;;;;;;;;5072353;28;20052;-83
2022/10/19 09:11:49;;;;;;;12.68;2.38;;;;;;;;;;5071490;28;20048;-82
2022/10/19 09:14:29;;;;;;;8.07;1.50;;;;;;;;;;5053290;28;20053;-82
2022/10/19 09:16:58;;;;;;;10.38;1.80;;;;;;;;;;5070956;28;20047;-81
2022/10/19 09:19:28;;;;;;;16.20;3.45;;;;;;;;;;5071323;28;20048;-82
2022/10/19 09:22:15;;;;;;;9.32;2.00;;;;;;;;;;5070988;28;20120;-81
2022/10/19 09:24:50;;;;;;;7.55;2.22;;;;;;;;;;5071921;28;20049;-81
2022/10/19 09:27:17;;;;;;;;;;;;;;;;;;5071227;28;20048;-81
2022/10/19 09:29:43;;;;;;;;;;;;;;;;;;5071269;28;19921;-81
2022/10/19 09:32:09;;;;;;;;;;;;;;;;;;5072271;28;19924;-82
2022/10/19 09:35:02;;;;;;;7.60;1.88;;;;;;;;;;5071318;28;19924;-81
2022/10/19 09:37:29;;;;;;;7.20;2.10;;;;;;;;;;5065809;28;20049;-83
2022/10/19 09:40:00;;;;;;;10.63;1.88;;;;;;;;;;5071230;28;20052;-82
2022/10/19 09:42:29;;;;;;;11.35;2.55;;;;;;;;;;5070653;28;20060;-82
2022/10/19 09:44:57;;;;;;;9.05;2.13;;;;;;;;;;5070772;28;20501;-81
2022/10/19 09:47:34;;;;;;;12.27;2.00;;;;;;;;;;5070331;28;20507;-82
2022/10/19 09:50:24;;;;;;;9.35;1.88;;;;;;;;;;5070753;28;20431;-81
2022/10/19 09:52:51;;;;;;;8.52;1.70;;;;;;;;;;5057412;28;20055;-81
2022/10/19 09:55:21;;;;;;;9.55;2.50;;;;;;;;;;5070862;28;20143;-82
2022/10/19 09:57:49;;;;;;;10.15;1.88;;;;;;;;;;5070386;28;20052;-81
2022/10/19 10:00:30;;;;;;;7.38;2.20;;;;;;;;;;5070389;28;20044;-82
2022/10/19 10:02:56;;;;;;;5.78;1.50;;;;;;;;;;5070984;28;20406;-81
2022/10/19 10:05:34;;;;;;;5.68;1.90;;;;;;;;;;5069363;28;20044;-81
2022/10/19 10:08:01;;;;;;;8.55;2.35;;;;;;;;;;5070152;28;20048;-81
2022/10/19 10:10:31;;;;;;;11.73;2.85;;;;;;;;;;5077545;28;20054;-81
2022/10/19 10:12:58;;;;;;;6.57;1.88;;;;;;;;;;5071191;28;20048;-83
2022/10/19 10:15:26;;;;;;;7.53;2.13;;;;;;;;;;5070734;28;20048;-81
2022/10/19 10:17:54;;;;;;;10.27;1.45;;;;;;;;;;5071286;28;20055;-79
2022/10/19 10:20:29;;;;;;;7.97;1.48;;;;;;;;;;5068810;28;20554;-82
2022/10/19 10:22:57;;;;;;;9.20;1.67;;;;;;;;;;5070483;28;20116;-81
2022/10/19 10:25:25;;;;;;;4.07;1.20;;;;;;;;;;5069163;28;20052;-81
2022/10/19 10:27:54;;;;;;;10.27;1.45;;;;;;;;;;5070873;28;20438;-79
2022/10/19 10:30:20;;;;;;;6.65;1.27;;;;;;;;;;5051501;28;20057;-82
2022/10/19 10:32:51;;;;;;;8.90;2.00;;;;;;;;;;5050562;28;20061;-81
2022/10/19 10:35:24;;;;;;;5.35;1.48;;;;;;;;;;5049969;28;20049;-82
2022/10/19 10:37:50;;;;;;;9.68;1.23;;;;;;;;;;5031864;28;20052;-81
2022/10/19 10:40:22;;;;;;;7.20;1.35;;;;;;;;;;5033669;28;20052;-80
2022/10/19 10:42:50;;;;;;;8.48;2.00;;;;;;;;;;5051479;28;20446;-80
2022/10/19 10:45:35;;;;;;;5.10;1.45;;;;;;;;;;5052371;28;20056;-81
2022/10/19 10:48:11;;;;;;;9.17;1.63;;;;;;;;;;5050553;28;20060;-81
2022/10/19 10:50:37;;;;;;;8.77;1.63;;;;;;;;;;5051363;28;20083;-81
2022/10/19 10:53:06;;;;;;;5.55;1.35;;;;;;;;;;5052094;28;20288;-81
2022/10/19 10:55:33;;;;;;;5.07;0.80;;;;;;;;;;5033645;28;20180;-82
2022/10/19 10:58:10;;;;;;;9.13;1.38;;;;;;;;;;5051696;28;20041;-81
2022/10/19 11:00:39;;;;;;;5.80;1.30;;;;;;;;;;5063768;28;20147;-81
2022/10/19 11:03:17;;;;;;;4.15;0.95;;;;;;;;;;5072544;28;20072;-82
2022/10/19 11:05:45;;;;;;;5.70;1.25;;;;;;;;;;5075167;28;20048;-79
2022/10/19 11:08:17;;;;;;;6.40;0.80;;;;;;;;;;5056632;28;20059;-80
2022/10/19 11:10:48;;;;;;;6.43;0.85;;;;;;;;;;5056296;28;20060;-80
2022/10/19 11:13:19;;;;;;;11.20;0.90;;;;;;;;;;5074761;28;20558;-81
2022/10/19 11:15:51;;;;;;;3.78;0.90;;;;;;;;;;5073962;28;20399;-80
2022/10/19 11:18:21;;;;;;;2.13;0.73;;;;;;;;;;5073927;28;20063;-82
2022/10/19 11:21:06;;;;;;;2.67;1.10;;;;;;;;;;5056151;28;20047;-81
2022/10/19 11:23:39;;;;;;;4.20;1.13;;;;;;;;;;5075109;28;20040;-80
2022/10/19 11:26:05;;;;;;;4.40;1.05;;;;;;;;;;5073934;28;20052;-82
2022/10/19 11:28:35;;;;;;;3.10;1.20;;;;;;;;;;5074702;28;20056;-82
2022/10/19 11:31:01;;;;;;;3.72;1.20;;;;;;;;;;5073609;28;20052;-81
2022/10/19 11:33:39;;;;;;;4.15;1.30;;;;;;;;;;5073231;28;20536;-82
2022/10/19 11:36:14;;;;;;;6.20;1.60;;;;;;;;;;5074832;28;20041;-82
2022/10/19 11:38:54;;;;;;;3.70;1.30;;;;;;;;;;5082072;28;20048;-80
2022/10/19 11:41:39;;;;;;;4.65;1.42;;;;;;;;;;5075056;28;20044;-80
2022/10/19 11:44:19;;;;;;;6.10;1.55;;;;;;;;;;5076167;28;20389;-80
2022/10/19 11:46:55;;;;;;;7.95;1.60;;;;;;;;;;5075275;28;20135;-81
2022/10/19 11:49:51;;;;;;;7.20;1.80;;;;;;;;;;5069002;28;20092;-82
2022/10/19 11:52:23;;;;;;;7.90;1.67;;;;;;;;;;5074884;28;20032;-81
2022/10/19 11:54:50;;;;;;;3.80;1.40;;;;;;;;;;5071137;28;20056;-81
2022/10/19 11:57:26;;;;;;;7.53;2.10;;;;;;;;;;5073953;28;20131;-81
2022/10/19 12:00:13;;;;;;;5.00;1.85;;;;;;;;;;5072926;28;20044;-82
2022/10/19 12:03:08;;;;;;;5.03;1.80;;;;;;;;;;5069287;28;20584;-81
2022/10/19 12:05:35;;;;;;;2.92;1.10;;;;;;;;;;5054348;28;20049;-83
2022/10/19 12:08:20;;;;;;;2.63;1.10;;;;;;;;;;5073310;28;20044;-81
2022/10/19 12:10:51;;;;;;;2.63;1.05;;;;;;;;;;5074606;28;20101;-79
2022/10/19 12:13:20;;;;;;;7.53;1.33;;;;;;;;;;5074590;28;20053;-80
2022/10/19 12:15:48;;;;;;;2.50;1.17;;;;;;;;;;5073759;28;20054;-79
2022/10/19 12:18:17;;;;;;;6.35;1.30;;;;;;;;;;5073974;28;20127;-80
2022/10/19 12:20:46;;;;;;;6.13;1.67;;;;;;;;;;5073996;28;20132;-80
2022/10/19 12:23:16;;;;;;;7.25;1.30;;;;;;;;;;5073547;28;20230;-81
2022/10/19 12:25:43;;;;;;;9.43;1.30;;;;;;;;;;5073627;28;20433;-79
2022/10/19 12:28:17;;;;;;;3.20;1.38;;;;;;;;;;5073746;28;20048;-80
2022/10/19 12:30:44;;;;;;;3.05;1.00;;;;;;;;;;5074029;28;20049;-79
2022/10/19 12:33:22;;;;;;;6.38;1.17;;;;;;;;;;5073386;28;20117;-82
2022/10/19 12:36:05;;;;;;;3.13;1.10;;;;;;;;;;5072909;28;20048;-81
2022/10/19 12:38:37;;;;;;;7.65;1.42;;;;;;;;;;5072152;28;20055;-82
2022/10/19 12:41:10;;;;;;;3.80;1.23;;;;;;;;;;5073042;28;20109;-80
2022/10/19 12:43:50;;;;;;;3.67;1.33;;;;;;;;;;5071421;28;20045;-82
2022/10/19 12:46:31;;;;;;;5.35;1.30;;;;;;;;;;5053685;28;20052;-81
2022/10/19 12:49:16;;;;;;;4.80;1.20;;;;;;;;;;5071839;28;20052;-81
2022/10/19 12:51:46;;;;;;;3.58;0.82;;;;;;;;;;5070223;28;20059;-82
2022/10/19 12:54:12;;;;;;;4.10;1.40;;;;;;;;;;5071164;28;20055;-81
2022/10/19 12:56:46;;;;;;;4.70;1.30;;;;;;;;;;5068151;28;20045;-78
2022/10/19 12:59:21;;;;;;;4.53;1.00;;;;;;;;;;5070232;28;20052;-77
2022/10/19 13:01:48;;;;;;;11.38;1.45;;;;;;;;;;5072168;28;20539;-80
2022/10/19 13:04:14;;;;;;;5.30;0.90;;;;;;;;;;5072785;28;20047;-77
2022/10/19 13:06:46;;;;;;;1.75;0.93;;;;;;;;;;5071098;28;20440;-79
2022/10/19 13:09:24;;;;;;;3.70;0.90;;;;;;;;;;5072072;28;20051;-81
2022/10/19 13:12:09;;;;;;;4.13;1.00;;;;;;;;;;5053294;28;20048;-80
2022/10/19 13:14:39;;;;;;;3.25;0.82;;;;;;;;;;5057692;28;20331;-79
2022/10/19 13:17:06;;;;;;;3.63;0.90;;;;;;;;;;5073982;28;20591;-79
2022/10/19 13:19:33;;;;;;;4.00;1.10;;;;;;;;;;5076555;28;20044;-80
2022/10/19 13:21:59;;;;;;;6.32;0.98;;;;;;;;;;5075601;28;20055;-80
2022/10/19 13:24:26;;;;;;;3.95;0.80;;;;;;;;;;5076361;28;20055;-80
2022/10/19 13:26:58;;;;;;;3.42;0.82;;;;;;;;;;5078776;28;20116;-80
2022/10/19 13:29:38;;;;;;;3.20;0.90;;;;;;;;;;5090901;28;20048;-81
2022/10/19 13:32:23;;;;;;;4.88;0.98;;;;;;;;;;5078941;28;20068;-81
2022/10/19 13:34:49;;;;;;;2.33;0.90;;;;;;;;;;5076878;28;20154;-81
2022/10/19 13:37:17;;;;;;;8.20;0.85;;;;;;;;;;5072294;28;20436;-80
2022/10/19 13:39:45;;;;;;;7.15;1.38;;;;;;;;;;5075011;28;20059;-81
2022/10/19 13:42:25;;;;;;;3.80;1.08;;;;;;;;;;5079202;28;20104;-80
2022/10/19 13:44:52;;;;;;;7.10;0.75;;;;;;;;;;5058931;28;20040;-80
2022/10/19 13:47:18;;;;;;;7.03;0.80;;;;;;;;;;5079380;28;20099;-80
2022/10/19 13:49:45;;;;;;;3.90;0.90;;;;;;;;;;5073111;28;20048;-82
2022/10/19 13:52:18;;;;;;;2.22;0.90;;;;;;;;;;5055330;28;20049;-82
2022/10/19 13:54:57;;;;;;;3.85;1.20;;;;;;;;;;5084659;28;20063;-80
2022/10/19 13:57:24;;;;;;;2.88;0.80;;;;;;;;;;5075871;28;20443;-80
2022/10/19 13:59:50;;;;;;;3.83;0.90;;;;;;;;;;5071968;28;20051;-79
2022/10/19 14:02:16;;;;;;;5.50;0.70;;;;;;;;;;5075679;28;20051;-81
2022/10/19 14:05:01;;;;;;;3.72;0.95;;;;;;;;;;5079437;28;20049;-81
2022/10/19 14:07:34;;;;;;;3.03;0.60;;;;;;;;;;5073661;28;20062;-81
2022/10/19 14:10:22;;;;;;;5.85;1.17;;;;;;;;;;5077383;28;20059;-81
2022/10/19 14:12:58;;;;;;;;;;;;;;;;;;5081521;28;20063;-80
2022/10/19 14:15:26;;;;;;;;;;;;;;;;;;5082749;28;20027;-82
2022/10/19 14:17:54;;;;;;;5.32;1.00;;;;;;;;;;5085788;28;19967;-81
2022/10/19 14:20:23;;;;;;;3.53;1.10;;;;;;;;;;5089276;28;20100;-80
2022/10/19 14:22:49;;;;;;;6.57;0.95;;;;;;;;;;5089848;28;20052;-81
2022/10/19 14:25:19;;;;;;;2.53;0.90;;;;;;;;;;5090712;28;20072;-80
2022/10/19 14:27:46;;;;;;;2.08;0.80;;;;;;;;;;5087204;28;20064;-80
2022/10/19 14:30:20;;;;;;;2.55;0.90;;;;;;;;;;5089779;28;20062;-79
2022/10/19 14:32:46;;;;;;;3.75;1.00;;;;;;;;;;5086860;28;20294;-79
2022/10/19 14:35:21;;;;;;;2.38;0.82;;;;;;;;;;5090332;28;20036;-81
2022/10/19 14:37:47;;;;;;;3.10;0.80;;;;;;;;;;5090830;28;20046;-80
2022/10/19 14:40:20;;;;;;;5.07;1.00;;;;;;;;;;5086962;28;20112;-81
2022/10/19 14:42:53;;;;;;;5.13;1.23;;;;;;;;;;5058214;28;20135;-79
2022/10/19 14:45:27;;;;;;;4.57;1.08;;;;;;;;;;5055683;28;20051;-79
2022/10/19 14:47:54;;;;;;;5.75;1.00;;;;;;;;;;5073843;28;20175;-79
2022/10/19 14:50:21;;;;;;;3.25;0.98;;;;;;;;;;5073396;28;20067;-79